< Typhoon 197806 1978 Season Typhoon 197808 >
Typhoon 197807 (VIRGINIA)
General InformationTrack Information on Google MapsDetailed Wind Information || Disaster Info.ResourceGoogle EarthGE AnimationAtom FeedGeoJSON
Detalied Best Track (Time Zone = UTC)
Year Month Day Hour Lat. Long. Pressure (hPa) Wind (kt) Class Image Chart
1978 7 22 06 14.4 151.8 1000 0 2 -- Chart
1978 7 22 12 14.7 151.7 996 0 2 -- Chart
1978 7 22 18 15.1 151.4 992 45 3 -- Chart
1978 7 23 00 15.6 151.1 990 45 3 -- Chart
1978 7 23 06 16.0 151.0 985 50 4 -- Chart
1978 7 23 12 16.1 151.1 985 50 4 -- Chart
1978 7 23 18 16.3 151.2 985 50 4 -- Chart
1978 7 24 00 16.7 151.1 985 50 4 -- Chart
1978 7 24 06 17.2 151.0 985 55 4 -- Chart
1978 7 24 12 17.8 150.9 985 55 4 -- Chart
1978 7 24 18 18.4 150.7 980 55 4 -- Chart
1978 7 25 00 18.9 150.5 975 55 4 -- Chart
1978 7 25 06 19.6 150.1 975 65 5 -- Chart
1978 7 25 12 20.1 149.5 975 65 5 -- Chart
1978 7 25 18 20.5 149.0 975 65 5 -- Chart
1978 7 26 00 20.9 148.8 975 65 5 -- Chart
1978 7 26 06 21.3 148.4 980 65 5 -- Chart
1978 7 26 12 21.6 147.9 980 65 5 -- Chart
1978 7 26 18 21.7 147.6 985 65 5 -- Chart
1978 7 27 00 21.8 147.3 985 65 5 -- Chart
1978 7 27 06 21.6 147.1 985 60 4 -- Chart
1978 7 27 12 21.4 147.2 985 60 4 -- Chart
1978 7 27 18 21.3 147.5 980 60 4 -- Chart
1978 7 28 00 21.4 147.7 980 60 4 -- Chart
1978 7 28 06 21.5 147.8 980 60 4 -- Chart
1978 7 28 12 21.7 147.3 980 60 4 -- Chart
1978 7 28 18 22.2 147.1 980 60 4 -- Chart
1978 7 29 00 22.6 147.0 980 60 4 -- Chart
1978 7 29 06 23.1 146.7 980 70 5 -- Chart
1978 7 29 12 23.9 146.2 980 70 5 -- Chart
1978 7 29 18 24.7 145.7 980 70 5 -- Chart
1978 7 30 00 25.4 145.0 985 70 5 -- Chart
1978 7 30 06 26.1 144.5 985 70 5 -- Chart
1978 7 30 12 27.5 143.8 985 70 5 -- Chart
1978 7 30 18 28.7 143.3 985 70 5 -- Chart
1978 7 31 00 29.6 142.6 985 70 5 -- Chart
1978 7 31 06 30.6 141.9 985 65 5 -- Chart
1978 7 31 12 31.8 141.5 985 65 5 -- Chart
1978 7 31 18 32.7 141.5 985 65 5 -- Chart
1978 8 1 00 33.7 141.5 985 65 5 -- Chart
1978 8 1 06 34.7 141.6 980 65 5 -- Chart
1978 8 1 12 36.1 142.5 980 65 5 -- Chart
1978 8 1 18 37.6 143.3 980 60 4 -- Chart
1978 8 2 00 39.2 144.4 980 60 4 -- Chart
1978 8 2 06 40.6 145.6 980 60 4 -- Chart
1978 8 2 12 41.6 147.2 985 55 4 -- Chart
1978 8 2 18 42.5 148.6 985 50 4 -- Chart
1978 8 3 00 43.6 150.2 990 45 3 -- Chart
1978 8 3 06 44.5 152.5 990 45 3 -- Chart
1978 8 3 12 45.5 155.6 990 45 3 -- Chart
1978 8 3 18 46.0 158.6 994 45 3 -- Chart
1978 8 4 00 46.0 162.0 998 0 6 -- Chart
1978 8 4 06 47.0 169.0 998 0 6 -- Chart
1978 8 4 12 48.0 176.2 994 0 6 -- Chart
Japan Meteorological Agency Best Track Data | Correction Date : 1992-10-21
< Typhoon 197806 1978 Season Typhoon 197808 >

Help